Weather reports worldwide

Advertisment
Vejer De La Frontera, Spain (8457): temperature & dewpoint: 27.06.2020 19:00:00 - 03.07.2020 19:00:00 (CEST)Vejer De La Frontera, Spain (8457): wind speed & gusts: 27.06.2020 19:00:00 - 03.07.2020 19:00:00 (CEST)Vejer De La Frontera, Spain (8457): wind direction: 27.06.2020 19:00:00 - 03.07.2020 19:00:00 (CEST)Vejer De La Frontera, Spain (8457): reduced air pressure: 27.06.2020 19:00:00 - 03.07.2020 19:00:00 (CEST)Vejer De La Frontera, Spain (8457): precipitation: 27.06.2020 19:00:00 - 03.07.2020 19:00:00 (CEST)
Date & Time tt [°C] td [°C] ff [km/h] ff [kn] fx [km/h] fx [kn] dd ppp [hPa] rr [mm]
03.07.2020 19:00:00 27,1 12,3 15 8 27 15 W 1017,2 0,0
03.07.2020 18:00:00 27,3 11,3 15 8 31 17 W 1017,6 0,0
03.07.2020 17:00:00 27,9 10,5 16 9 33 18 W 1017,7 0,0
03.07.2020 16:00:00 28,5 10,2 16 9 29 16 W 1018,0 0,0
03.07.2020 15:00:00 28,8 9,0 16 9 28 15 W 1018,4 0,0
03.07.2020 14:00:00 28,4 9,7 15 8 26 14 WSW 1018,6 -
03.07.2020 13:00:00 28,2 11,7 12 6 21 11 W 1018,9 0,0
03.07.2020 12:00:00 26,8 13,6 8 4 16 9 W 1018,9 0,0
03.07.2020 11:00:00 24,5 13,1 3 2 9 5 W 1019,0 0,0
03.07.2020 10:00:00 22,2 13,6 4 2 12 7 WNW 1018,5 0,0
03.07.2020 09:00:00 20,7 12,6 5 3 13 7 NNW 1018,3 0,0
03.07.2020 08:00:00 20,2 14,1 5 3 11 6 NW 1017,9 -
03.07.2020 07:00:00 20,0 17,2 4 2 7 4 WNW 1017,6 0,0
03.07.2020 06:00:00 20,3 17,9 2 1 7 4 WNW 1017,5 0,0
03.07.2020 05:00:00 19,9 17,7 4 2 9 5 W 1017,5 0,0
03.07.2020 04:00:00 20,0 17,9 7 4 11 6 WSW 1017,9 0,0
03.07.2020 03:00:00 20,1 18,1 6 3 11 6 WSW 1018,3 0,0
03.07.2020 02:00:00 20,2 18,3 7 4 14 8 SSW 1018,5 -
03.07.2020 01:00:00 20,2 17,9 4 2 11 6 SSW 1018,7 0,0
03.07.2020 00:00:00 20,5 17,3 5 3 10 5 S 1018,8 0,0
02.07.2020 23:00:00 22,0 17,0 8 4 26 14 WSW 1017,8 0,0
02.07.2020 22:00:00 22,2 17,4 18 10 34 18 W 1016,8 0,0
02.07.2020 21:00:00 24,1 17,1 19 10 30 16 W 1016,5 0,0
02.07.2020 20:00:00 25,5 16,6 20 11 32 17 W 1016,3 -
02.07.2020 19:00:00 26,5 16,5 20 11 33 18 WSW 1016,3 0,0
02.07.2020 18:00:00 28,2 16,1 16 9 33 18 W 1016,4 0,0
02.07.2020 17:00:00 28,5 15,8 16 9 31 17 W 1016,5 0,0
02.07.2020 16:00:00 28,5 16,0 15 8 30 16 W 1017,1 0,0
02.07.2020 15:00:00 28,2 17,4 19 10 31 17 W 1017,2 0,0
02.07.2020 14:00:00 27,6 17,8 17 9 30 16 WSW 1017,5 -
02.07.2020 13:00:00 27,4 17,9 13 7 26 14 W 1017,5 0,0
02.07.2020 12:00:00 26,0 18,7 10 5 19 10 W 1017,6 0,0
02.07.2020 11:00:00 23,4 18,9 12 6 20 11 SW 1017,5 0,0
02.07.2020 10:00:00 21,9 19,3 11 6 24 13 WSW 1017,1 0,0
02.07.2020 09:00:00 20,8 19,3 13 7 22 12 SW 1016,8 0,0
02.07.2020 08:00:00 20,3 18,8 9 5 17 9 SW 1016,4 -
02.07.2020 07:00:00 19,9 18,5 10 6 18 10 SW 1016,0 0,0
02.07.2020 06:00:00 19,6 18,2 9 5 19 10 SW 1015,7 0,0
02.07.2020 05:00:00 19,2 17,9 5 3 10 6 SW 1015,7 0,0
02.07.2020 04:00:00 19,4 17,7 1 1 8 5 S 1015,6 0,0
02.07.2020 03:00:00 19,8 17,9 4 2 8 5 W 1016,1 0,0
02.07.2020 02:00:00 20,1 18,6 4 2 11 6 WSW 1016,3 -
02.07.2020 01:00:00 20,5 18,5 6 3 16 9 W 1016,1 0,0
02.07.2020 00:00:00 20,7 17,9 5 3 14 8 W 1015,5 0,0
01.07.2020 23:00:00 21,0 17,8 9 5 21 12 W 1014,7 0,0
01.07.2020 22:00:00 21,8 17,4 11 6 21 12 W 1014,1 0,0
01.07.2020 21:00:00 24,8 16,7 10 6 22 12 W 1014,0 0,0
01.07.2020 20:00:00 28,1 12,8 12 7 22 12 W 1014,0 -
01.07.2020 19:00:00 29,4 14,4 13 7 24 13 W 1013,8 0,0
01.07.2020 18:00:00 29,0 15,2 13 7 28 15 W 1014,3 0,0
01.07.2020 17:00:00 29,3 14,3 16 8 27 15 W 1014,6 0,0
01.07.2020 16:00:00 29,1 14,9 13 7 26 14 W 1014,8 0,0
01.07.2020 15:00:00 28,6 15,5 13 7 23 12 W 1015,1 0,0
01.07.2020 14:00:00 27,7 15,7 9 5 18 10 WSW 1015,3 -
01.07.2020 13:00:00 25,5 16,0 8 5 17 9 WSW 1016,0 0,0
01.07.2020 12:00:00 23,8 17,1 8 5 19 11 SW 1016,1 0,0
01.07.2020 11:00:00 22,3 17,0 8 5 22 12 SW 1016,1 0,0
01.07.2020 10:00:00 20,3 16,9 11 6 18 10 SW 1016,2 0,0
01.07.2020 09:00:00 19,8 17,2 8 4 16 9 SW 1015,8 0,0
01.07.2020 08:00:00 19,2 17,1 6 3 15 8 SSW 1015,3 -
01.07.2020 07:00:00 19,3 17,5 8 5 15 8 SW 1015,0 0,0
01.07.2020 06:00:00 19,1 17,6 8 4 11 6 SSW 1014,5 0,0
01.07.2020 05:00:00 19,7 18,2 6 3 11 6 SSW 1014,3 0,0
01.07.2020 04:00:00 19,9 18,2 7 4 13 7 SW 1014,4 0,0
01.07.2020 03:00:00 20,1 18,4 5 3 9 5 SW 1014,8 0,0
01.07.2020 02:00:00 20,3 18,4 3 2 16 9 SW 1015,0 -
01.07.2020 01:00:00 20,6 18,9 11 6 19 10 SW 1015,1 0,0
01.07.2020 00:00:00 21,0 19,3 10 5 18 10 WSW 1014,8 0,0
30.06.2020 23:00:00 21,2 19,0 11 6 18 10 WSW 1014,1 0,0
30.06.2020 22:00:00 23,1 17,8 8 4 12 7 W 1013,1 0,0
30.06.2020 21:00:00 26,6 16,6 6 3 12 7 WSW 1012,2 0,0
30.06.2020 20:00:00 28,0 15,3 7 4 19 11 SSW 1012,3 -
30.06.2020 19:00:00 29,4 15,5 8 4 26 14 SSW 1012,1 0,0
30.06.2020 18:00:00 29,1 16,6 13 7 28 15 SSW 1012,6 0,0
30.06.2020 17:00:00 28,7 16,3 12 7 25 14 S 1012,7 0,0
30.06.2020 16:00:00 29,0 16,2 12 7 28 15 SSW 1012,9 0,0
30.06.2020 15:00:00 29,0 15,9 11 6 28 15 S 1013,4 0,0
30.06.2020 14:00:00 28,6 16,2 13 7 29 15 S 1013,5 -
30.06.2020 13:00:00 28,6 15,5 9 5 23 13 SSE 1013,4 0,0
30.06.2020 12:00:00 26,8 16,7 9 5 23 13 SSE 1013,6 0,0
30.06.2020 11:00:00 25,3 17,2 9 5 26 14 SSE 1013,1 0,0
30.06.2020 10:00:00 23,9 16,9 12 7 24 13 SSE 1012,9 0,0
30.06.2020 09:00:00 22,6 17,1 8 4 20 11 SSE 1012,7 0,0
30.06.2020 08:00:00 21,4 16,6 4 2 9 5 WSW 1012,4 -
30.06.2020 07:00:00 22,4 10,5 2 1 7 4 E 1012,0 0,0
30.06.2020 06:00:00 23,1 11,2 1 1 14 8 NNW 1011,6 0,0
30.06.2020 05:00:00 23,1 10,9 8 4 24 13 E 1011,3 0,0
30.06.2020 04:00:00 23,1 10,9 8 4 21 11 E 1011,4 0,0
30.06.2020 03:00:00 22,9 10,6 10 5 24 13 E 1012,1 0,0
30.06.2020 02:00:00 23,4 10,8 9 5 24 13 E 1012,5 -
30.06.2020 01:00:00 23,4 10,4 9 5 19 10 E 1012,7 0,0
30.06.2020 00:00:00 23,8 10,2 9 5 21 12 E 1012,8 0,0
29.06.2020 23:00:00 25,1 9,4 8 4 18 10 E 1012,6 0,0
29.06.2020 22:00:00 26,8 8,7 5 3 14 7 ENE 1012,2 0,0
29.06.2020 21:00:00 29,5 9,6 7 4 26 14 E 1011,7 0,0
29.06.2020 20:00:00 31,7 9,3 12 6 29 16 E 1011,6 -
29.06.2020 19:00:00 33,1 9,8 10 6 26 14 E 1011,6 0,0
29.06.2020 18:00:00 34,1 9,3 11 6 34 18 E 1012,0 0,0
29.06.2020 17:00:00 34,9 6,2 11 6 29 15 E 1012,6 0,0
29.06.2020 16:00:00 34,9 8,7 13 7 31 17 E 1013,2 0,0
29.06.2020 15:00:00 34,4 9,6 12 6 28 15 E 1013,8 0,0
29.06.2020 14:00:00 34,3 10,2 11 6 26 14 E 1014,2 -
29.06.2020 13:00:00 33,9 12,3 7 4 21 11 E 1014,8 0,0
29.06.2020 12:00:00 32,2 12,4 3 2 14 8 E 1015,3 0,0
29.06.2020 11:00:00 29,8 12,2 4 2 14 8 E 1015,2 0,0
29.06.2020 10:00:00 26,7 12,3 9 5 17 9 ESE 1015,2 0,0
29.06.2020 09:00:00 24,1 13,1 5 3 13 7 E 1015,3 0,0
29.06.2020 08:00:00 22,6 13,7 6 3 10 5 E 1015,1 -
29.06.2020 07:00:00 23,0 12,6 4 2 8 4 ENE 1014,8 0,0
29.06.2020 06:00:00 23,1 12,7 5 3 13 7 ENE 1014,6 0,0
29.06.2020 05:00:00 23,0 13,5 6 3 16 9 E 1014,8 0,0
29.06.2020 04:00:00 22,9 13,7 7 4 14 8 ENE 1015,3 0,0
29.06.2020 03:00:00 23,6 14,0 7 4 11 6 ENE 1015,5 0,0
29.06.2020 02:00:00 24,3 14,1 5 3 13 7 E 1016,0 -
29.06.2020 01:00:00 25,2 14,0 7 4 12 7 E 1016,1 0,0
29.06.2020 00:00:00 25,3 15,3 5 3 9 5 E 1015,9 0,0
28.06.2020 23:00:00 25,3 15,6 4 2 10 5 ESE 1015,8 0,0
28.06.2020 22:00:00 27,0 14,4 5 3 15 8 NW 1015,1 0,0
28.06.2020 21:00:00 29,4 17,5 8 4 18 10 W 1014,7 0,0
28.06.2020 20:00:00 30,2 17,6 9 5 20 11 W 1014,3 -
28.06.2020 19:00:00 31,5 16,6 10 6 20 11 WSW 1014,7 0,0
28.06.2020 18:00:00 31,8 17,3 9 5 22 12 W 1014,8 0,0
28.06.2020 17:00:00 32,1 17,5 11 6 19 11 W 1015,0 0,0
28.06.2020 16:00:00 32,7 18,1 8 4 20 11 W 1015,5 0,0
28.06.2020 15:00:00 31,9 17,8 3 2 13 7 E 1016,1 0,0
28.06.2020 14:00:00 29,6 18,4 5 3 12 7 ESE 1016,9 -
28.06.2020 13:00:00 25,8 18,2 6 3 17 9 S 1017,4 0,0
28.06.2020 12:00:00 24,4 18,5 8 5 18 10 S 1017,5 0,0
28.06.2020 11:00:00 24,8 19,2 5 3 11 6 ESE 1017,2 0,0
28.06.2020 10:00:00 21,8 18,8 2 1 11 6 S 1017,3 0,0
28.06.2020 09:00:00 20,3 18,6 4 2 10 6 SE 1017,3 0,0
28.06.2020 08:00:00 19,6 18,2 4 2 10 5 S 1016,6 -
28.06.2020 07:00:00 19,2 17,9 4 2 9 5 SSW 1016,1 0,0
28.06.2020 06:00:00 19,2 17,1 4 2 9 5 SW 1016,2 0,0
28.06.2020 05:00:00 20,1 16,1 3 2 6 3 SW 1016,2 0,0
28.06.2020 04:00:00 20,9 15,9 4 2 6 4 S 1016,3 0,0
28.06.2020 03:00:00 22,0 16,3 5 3 12 7 WNW 1016,8 0,0
28.06.2020 02:00:00 22,0 16,0 9 5 14 8 WNW 1017,0 -
28.06.2020 01:00:00 22,1 15,9 4 2 21 11 NW 1017,4 0,0
28.06.2020 00:00:00 21,8 15,6 11 6 28 15 WNW 1017,2 0,0
27.06.2020 23:00:00 21,4 15,3 18 10 28 15 WNW 1016,6 0,0
27.06.2020 22:00:00 21,9 15,3 16 9 27 15 W 1016,1 0,0
27.06.2020 21:00:00 24,4 16,4 14 8 26 14 W 1015,8 0,0
27.06.2020 20:00:00 26,0 17,4 14 8 29 16 W 1015,5 -
27.06.2020 19:00:00 26,2 17,3 17 9 31 17 W 1015,8 0,0

tt = temperature
td = dewpoint
ff = wind speed
fx = gusts
dd = wind direction
ppp = reduced air pressure
rr = precipitation

Next stations